Terminal Aerodrome Forecast
Issued by NWS Dodge City, KS

Home | Current Version | Previous Version | Graphics & Text | Print | Product List | Glossary Off
Versions: 1 2 3 4 5 6 7 8 9 10 11 12 13 14 15 16 17

000
FTUS43 KDDC 211732 AAB
TAFDDC
TAF AMD
KDDC 211732Z 2118/2218 08015G22KT P6SM -SHRA OVC014
      TEMPO 2121/2124 01014G22KT 4SM -RA OVC008
     FM220200 01014G22KT 5SM BR OVC010
     FM221500 01011G19KT P6SM BKN035=

USA.gov is the U.S. government's official web portal to all federal, state and local government web resources and services.